createdAt,value
2019-04-04T00:03:15.156Z,10.30
2019-04-04T00:08:19.642Z,11.05
2019-04-04T00:13:24.077Z,11.00
2019-04-04T00:18:28.449Z,11.30
2019-04-04T00:23:32.962Z,11.60
2019-04-04T00:28:37.290Z,12.37
2019-04-04T00:33:41.612Z,11.95
2019-04-04T00:38:46.058Z,12.33
2019-04-04T00:43:51.871Z,13.35
2019-04-04T00:48:56.302Z,12.77
2019-04-04T00:54:00.644Z,14.43
2019-04-04T00:59:04.852Z,14.13
2019-04-04T01:04:09.095Z,14.70
2019-04-04T01:09:13.785Z,14.80
2019-04-04T01:14:18.211Z,14.80
2019-04-04T01:19:22.446Z,15.85
2019-04-04T01:24:28.852Z,16.40
2019-04-04T01:29:33.090Z,16.90
2019-04-04T01:34:37.658Z,16.93
2019-04-04T01:39:41.961Z,17.73
2019-04-04T01:44:46.254Z,18.17
2019-04-04T01:49:51.882Z,17.73
2019-04-04T01:54:57.811Z,18.67
2019-04-04T02:00:02.001Z,19.92
2019-04-04T02:05:07.259Z,19.27
2019-04-04T02:10:11.711Z,18.23
2019-04-04T02:15:16.043Z,19.07
2019-04-04T02:20:20.252Z,19.62
2019-04-04T02:25:24.449Z,18.62
2019-04-04T02:30:29.130Z,18.27
2019-04-04T02:35:33.641Z,19.80
2019-04-04T02:40:40.906Z,18.85
2019-04-04T02:45:43.868Z,19.80
2019-04-04T02:50:48.071Z,21.33
2019-04-04T02:55:52.313Z,19.95
2019-04-04T03:00:59.105Z,21.35
2019-04-04T03:06:02.869Z,20.97
2019-04-04T03:11:07.044Z,21.25
2019-04-04T03:16:11.315Z,22.17
2019-04-04T03:21:15.550Z,22.50
2019-04-04T03:26:20.574Z,23.03
2019-04-04T03:31:25.062Z,22.75
2019-04-04T03:36:30.757Z,22.77
2019-04-04T03:41:36.190Z,22.05
2019-04-04T03:46:40.649Z,23.35
2019-04-04T03:51:45.013Z,22.05
2019-04-04T03:56:49.287Z,23.27
2019-04-04T04:01:53.632Z,22.27
2019-04-04T04:06:57.929Z,22.15
2019-04-04T04:12:02.541Z,23.07
2019-04-04T04:17:09.217Z,23.80
2019-04-04T04:22:13.226Z,24.52
2019-04-04T04:27:18.702Z,24.67
2019-04-04T04:32:22.932Z,24.25
2019-04-04T04:37:27.466Z,24.25
2019-04-04T04:42:31.681Z,25.27
2019-04-04T04:47:35.912Z,24.43
2019-04-04T04:52:40.209Z,25.10
2019-04-04T04:57:44.418Z,25.68
2019-04-04T05:02:48.623Z,26.97
2019-04-04T05:07:54.835Z,27.42
2019-04-04T05:12:58.779Z,28.83
2019-04-04T05:18:02.988Z,27.60
2019-04-04T05:23:07.193Z,27.77
2019-04-04T05:28:11.535Z,28.87
2019-04-04T05:33:15.932Z,28.75
2019-04-04T05:38:20.123Z,30.23
2019-04-04T05:43:24.350Z,27.55
2019-04-04T05:48:29.199Z,27.40
2019-04-04T05:53:35.437Z,28.67
2019-04-04T05:58:39.900Z,27.42
2019-04-04T06:03:47.034Z,29.27
2019-04-04T06:08:50.138Z,26.50
2019-04-04T06:13:54.457Z,27.95
2019-04-04T06:18:58.645Z,29.35
2019-04-04T06:24:02.842Z,27.48
2019-04-04T06:29:07.033Z,28.87
2019-04-04T06:34:11.274Z,27.82
2019-04-04T06:39:15.535Z,25.20
2019-04-04T06:44:19.862Z,25.92
2019-04-04T06:49:24.041Z,23.87
2019-04-04T06:54:28.291Z,24.07
2019-04-04T06:59:32.994Z,22.47
2019-04-04T07:04:37.763Z,21.62
2019-04-04T07:09:41.959Z,20.48
2019-04-04T07:14:49.353Z,19.92
2019-04-04T07:19:52.175Z,20.08
2019-04-04T07:24:56.397Z,17.70
2019-04-04T07:30:00.671Z,19.50
2019-04-04T07:35:05.806Z,17.45
2019-04-04T07:40:10.144Z,16.52
2019-04-04T07:45:14.571Z,16.93
2019-04-04T07:50:18.919Z,18.67
2019-04-04T07:55:23.145Z,17.73
2019-04-04T08:00:27.406Z,19.67
2019-04-04T08:05:31.579Z,19.90
2019-04-04T08:10:35.978Z,19.05
2019-04-04T08:15:40.226Z,19.87
2019-04-04T08:20:44.576Z,20.65
2019-04-04T08:25:48.803Z,21.45
2019-04-04T08:30:53.011Z,20.62
2019-04-04T08:36:05.969Z,22.32
2019-04-04T08:41:03.247Z,21.25
2019-04-04T08:46:07.448Z,22.25
2019-04-04T08:51:11.802Z,22.20
2019-04-04T08:56:16.034Z,21.93
2019-04-04T09:01:20.243Z,21.10
2019-04-04T09:06:24.502Z,21.97
2019-04-04T09:11:29.980Z,20.55
2019-04-04T09:16:34.171Z,21.62
2019-04-04T09:21:38.360Z,21.50
2019-04-04T09:26:42.552Z,20.40
2019-04-04T09:31:46.782Z,20.08
2019-04-04T09:36:51.021Z,20.75
2019-04-04T09:41:55.215Z,21.40
2019-04-04T09:47:05.396Z,20.95
2019-04-04T09:52:05.484Z,19.62
2019-04-04T09:57:09.718Z,19.73
2019-04-04T10:02:14.002Z,19.65
2019-04-04T10:07:18.196Z,20.80
2019-04-04T10:12:21.948Z,19.20
2019-04-04T10:17:26.295Z,19.32
2019-04-04T10:22:30.499Z,20.75
2019-04-04T10:27:34.745Z,19.95
2019-04-04T10:32:39.255Z,19.55
2019-04-04T10:37:43.723Z,19.92
2019-04-04T10:42:48.023Z,21.12
2019-04-04T10:47:52.251Z,20.77
2019-04-04T10:52:56.608Z,20.55
2019-04-04T10:58:00.893Z,20.95
2019-04-04T11:03:05.162Z,19.98
2019-04-04T11:08:09.441Z,19.07
2019-04-04T11:13:16.623Z,20.08
2019-04-04T11:18:20.837Z,20.57
2019-04-04T11:23:25.121Z,21.12
2019-04-04T11:28:29.299Z,21.25
2019-04-04T11:33:33.536Z,19.50
2019-04-04T11:38:37.752Z,19.45
2019-04-04T11:43:41.963Z,20.80
2019-04-04T11:48:46.227Z,19.15
2019-04-04T11:53:50.430Z,18.65
2019-04-04T11:58:54.638Z,19.12
2019-04-04T12:03:58.816Z,19.05
2019-04-04T12:09:03.096Z,20.25
2019-04-04T12:14:07.300Z,20.68
2019-04-04T12:19:11.495Z,20.23
2019-04-04T12:24:15.812Z,20.97
2019-04-04T12:29:20.030Z,21.60
2019-04-04T12:34:24.222Z,22.07
2019-04-04T12:39:28.438Z,23.22
2019-04-04T12:44:32.615Z,23.67
2019-04-04T12:49:36.814Z,24.67
2019-04-04T12:54:41.132Z,22.95
2019-04-04T12:59:45.387Z,22.20
2019-04-04T13:04:49.591Z,23.05
2019-04-04T13:09:53.812Z,22.15
2019-04-04T13:14:58.017Z,24.23
2019-04-04T13:20:02.424Z,22.70
2019-04-04T13:25:07.588Z,22.93
2019-04-04T13:30:12.536Z,22.10
2019-04-04T13:35:16.777Z,21.62
2019-04-04T13:40:20.986Z,21.23
2019-04-04T13:45:25.938Z,21.70
2019-04-04T13:50:30.347Z,19.17
2019-04-04T13:55:34.552Z,19.45
2019-04-04T14:00:38.844Z,20.17
2019-04-04T14:05:43.161Z,21.25
2019-04-04T14:10:57.520Z,21.37
2019-04-04T14:15:53.386Z,21.68
2019-04-04T14:21:03.691Z,21.30
2019-04-04T14:26:03.599Z,20.50
2019-04-04T14:31:07.937Z,20.70
2019-04-04T14:36:12.264Z,20.23
2019-04-04T14:41:16.474Z,20.97
2019-04-04T14:46:20.819Z,20.85
2019-04-04T14:51:25.050Z,21.77
2019-04-04T14:56:29.310Z,22.80
2019-04-04T15:01:35.063Z,23.73
2019-04-04T15:06:39.585Z,25.32
2019-04-04T15:11:43.810Z,25.55
2019-04-04T15:16:48.101Z,26.05
2019-04-04T15:21:52.334Z,22.82
2019-04-04T15:26:56.539Z,23.18
2019-04-04T15:32:00.767Z,22.10
2019-04-04T15:37:05.053Z,22.07
2019-04-04T15:42:09.274Z,21.15
2019-04-04T15:47:13.479Z,21.65
2019-04-04T15:52:18.372Z,22.70
2019-04-04T15:57:22.684Z,23.55
2019-04-04T16:02:26.895Z,21.52
2019-04-04T16:07:31.170Z,21.77
2019-04-04T16:12:35.347Z,22.05
2019-04-04T16:17:39.973Z,24.35
2019-04-04T16:22:44.198Z,22.85
2019-04-04T16:27:48.416Z,23.50
2019-04-04T16:32:52.619Z,23.27
2019-04-04T16:37:56.906Z,23.87
2019-04-04T16:43:01.091Z,23.57
2019-04-04T16:48:05.298Z,23.27
2019-04-04T16:53:09.512Z,22.52
2019-04-04T16:58:13.738Z,24.50
2019-04-04T17:03:18.098Z,24.55
2019-04-04T17:08:22.323Z,24.45
2019-04-04T17:13:26.525Z,24.57
2019-04-04T17:18:30.712Z,24.25
2019-04-04T17:23:34.940Z,24.12
2019-04-04T17:28:39.214Z,23.67
2019-04-04T17:33:43.498Z,24.92
2019-04-04T17:38:47.721Z,25.27
2019-04-04T17:43:55.366Z,26.93
2019-04-04T17:48:59.840Z,24.92
2019-04-04T17:54:04.136Z,26.25
2019-04-04T17:59:08.520Z,27.60
2019-04-04T18:04:13.911Z,28.85
2019-04-04T18:09:30.869Z,30.62
2019-04-04T18:14:24.100Z,31.87
2019-04-04T18:19:28.442Z,34.45
2019-04-04T18:24:32.649Z,33.42
2019-04-04T18:29:37.048Z,35.25
2019-04-04T18:34:41.754Z,35.92
2019-04-04T18:39:46.274Z,36.35
2019-04-04T18:44:50.552Z,37.50
2019-04-04T18:49:54.894Z,37.48
2019-04-04T18:54:59.100Z,37.73
2019-04-04T19:00:03.474Z,39.40
2019-04-04T19:05:07.819Z,39.35
2019-04-04T19:10:12.362Z,39.10
2019-04-04T19:15:16.744Z,39.08
2019-04-04T19:20:21.125Z,40.45
2019-04-04T19:25:25.528Z,39.38
2019-04-04T19:30:29.908Z,37.65
2019-04-04T19:35:34.317Z,38.85
2019-04-04T19:40:38.772Z,42.27
2019-04-04T19:45:43.089Z,42.43
2019-04-04T19:50:47.368Z,43.50
2019-04-04T19:55:51.953Z,42.88
2019-04-04T20:00:56.966Z,43.00
2019-04-04T20:06:01.195Z,44.23
2019-04-04T20:11:05.517Z,43.42
2019-04-04T20:16:12.260Z,44.20
2019-04-04T20:21:15.955Z,44.77
2019-04-04T20:26:20.353Z,45.10
2019-04-04T20:31:25.672Z,43.87
2019-04-04T20:36:30.031Z,45.15
2019-04-04T20:41:34.994Z,43.48
2019-04-04T20:46:39.308Z,40.28
2019-04-04T20:51:43.505Z,42.13
2019-04-04T20:56:47.733Z,39.88
2019-04-04T21:01:52.078Z,39.20
2019-04-04T21:06:56.273Z,41.02
2019-04-04T21:12:00.506Z,39.88
2019-04-04T21:17:04.751Z,39.50
2019-04-04T21:22:08.972Z,37.75
2019-04-04T21:27:13.200Z,36.83
2019-04-04T21:32:17.465Z,38.28
2019-04-04T21:37:21.712Z,38.15
2019-04-04T21:42:25.982Z,40.12
2019-04-04T21:47:30.230Z,42.38
2019-04-04T21:52:34.984Z,40.65
2019-04-04T21:57:39.303Z,38.30
2019-04-04T22:02:43.675Z,36.20
2019-04-04T22:07:47.985Z,39.30
2019-04-04T22:12:52.270Z,40.83
2019-04-04T22:17:56.581Z,41.28
2019-04-04T22:23:00.893Z,43.28
2019-04-04T22:28:05.166Z,42.05
2019-04-04T22:33:09.486Z,43.85
2019-04-04T22:38:13.855Z,43.25
2019-04-04T22:43:18.156Z,45.10
2019-04-04T22:48:22.378Z,44.80
2019-04-04T22:53:26.612Z,41.90
2019-04-04T22:58:30.991Z,43.28
2019-04-04T23:03:35.297Z,42.75
2019-04-04T23:08:39.593Z,46.58
2019-04-04T23:13:43.864Z,44.03
2019-04-04T23:18:48.212Z,43.92
